Terminal Aerodrome Forecast
Issued by NWS Mt. Holly, NJ

Home | Current Version | Previous Version | Text Only | Print | Product List | Glossary On
Versions: 1 2 3 4 5 6 7 8 9 10 11 12 13 14 15 16 17 18 19 20 21 22 23 24 25 26 27 28 29 30 31 32 33 34 35 36 37 38 39 40 41 42 43 44 45 46 47 48 49 50
000
FTAK31 PANC 241740
TAFABE
TAF
PABE 241740Z 2418/2518 02006KT P6SM VCSH SCT025 BKN060
     FM241900 04004KT P6SM -SHRA SCT015 BKN025
     FM250300 18005KT P6SM -SHRA BKN020
     FM250900 19005KT P6SM VCSH SCT007 OVC020
     FM251200 19005KT 4SM BR OVC007=

USA.gov is the U.S. government's official web portal to all federal, state and local government web resources and services.